createdAt,value
2018-07-30T00:02:19.369Z,76.22
2018-07-30T00:04:47.150Z,76.63
2018-07-30T00:07:14.927Z,76.30
2018-07-30T00:09:42.714Z,76.43
2018-07-30T00:12:10.504Z,76.91
2018-07-30T00:14:38.369Z,75.82
2018-07-30T00:17:06.229Z,76.71
2018-07-30T00:19:34.066Z,76.92
2018-07-30T00:22:01.866Z,76.64
2018-07-30T00:24:29.635Z,78.79
2018-07-30T00:26:57.446Z,79.58
2018-07-30T00:29:25.222Z,78.89
2018-07-30T00:31:52.990Z,78.92
2018-07-30T00:34:20.761Z,78.47
2018-07-30T00:36:48.564Z,78.11
2018-07-30T00:39:16.360Z,78.96
2018-07-30T00:41:44.126Z,79.59
2018-07-30T00:44:11.893Z,80.34
2018-07-30T00:46:39.645Z,79.56
2018-07-30T00:49:07.825Z,78.64
2018-07-30T00:51:35.719Z,79.33
2018-07-30T00:54:03.457Z,78.30
2018-07-30T00:56:31.272Z,77.41
2018-07-30T00:58:59.031Z,77.69
2018-07-30T01:01:26.789Z,78.06
2018-07-30T01:03:54.573Z,77.55
2018-07-30T01:06:22.362Z,76.41
2018-07-30T01:08:50.196Z,76.43
2018-07-30T01:11:17.982Z,76.12
2018-07-30T01:13:45.813Z,76.10
2018-07-30T01:16:13.603Z,76.52
2018-07-30T01:18:41.377Z,76.38
2018-07-30T01:21:09.306Z,75.59
2018-07-30T01:23:37.117Z,75.18
2018-07-30T01:26:10.522Z,75.68
2018-07-30T01:28:38.288Z,76.08
2018-07-30T01:31:06.162Z,76.69
2018-07-30T01:33:33.934Z,77.39
2018-07-30T01:36:01.743Z,77.46
2018-07-30T01:38:29.536Z,78.17
2018-07-30T01:40:57.310Z,79.24
2018-07-30T01:43:25.077Z,79.65
2018-07-30T01:45:52.841Z,79.82
2018-07-30T01:48:20.593Z,80.91
2018-07-30T01:50:48.392Z,81.31
2018-07-30T01:53:16.204Z,81.22
2018-07-30T01:55:44.002Z,80.17
2018-07-30T01:58:11.782Z,81.58
2018-07-30T02:00:39.646Z,81.54
2018-07-30T02:03:07.485Z,81.50
2018-07-30T02:05:35.236Z,81.50
2018-07-30T02:08:03.033Z,80.94
2018-07-30T02:10:30.830Z,80.41
2018-07-30T02:12:58.610Z,80.42
2018-07-30T02:15:26.422Z,80.16
2018-07-30T02:17:54.194Z,79.79
2018-07-30T02:20:22.039Z,79.68
2018-07-30T02:22:49.826Z,79.14
2018-07-30T02:25:17.630Z,80.18
2018-07-30T02:27:45.470Z,79.33
2018-07-30T02:30:13.234Z,79.59
2018-07-30T02:32:41.040Z,79.17
2018-07-30T02:35:09.265Z,79.53
2018-07-30T02:37:37.187Z,78.79
2018-07-30T02:40:05.737Z,78.53
2018-07-30T02:42:33.494Z,79.31
2018-07-30T02:45:01.550Z,79.87
2018-07-30T02:47:29.381Z,79.84
2018-07-30T02:49:57.173Z,79.60
2018-07-30T02:52:25.046Z,79.09
2018-07-30T02:54:52.874Z,78.97
2018-07-30T02:57:20.653Z,79.40
2018-07-30T02:59:48.461Z,78.78
2018-07-30T03:02:16.402Z,79.01
2018-07-30T03:04:44.201Z,79.74
2018-07-30T03:07:12.001Z,79.28
2018-07-30T03:09:39.765Z,79.57
2018-07-30T03:12:07.618Z,79.00
2018-07-30T03:14:35.396Z,78.22
2018-07-30T03:17:03.197Z,78.55
2018-07-30T03:19:31.033Z,76.35
2018-07-30T03:21:58.798Z,76.87
2018-07-30T03:24:26.616Z,77.27
2018-07-30T03:26:54.390Z,77.39
2018-07-30T03:29:22.197Z,76.32
2018-07-30T03:31:50.002Z,76.94
2018-07-30T03:34:17.800Z,77.71
2018-07-30T03:36:45.605Z,77.97
2018-07-30T03:39:13.383Z,78.81
2018-07-30T03:41:41.153Z,77.97
2018-07-30T03:44:08.929Z,76.77
2018-07-30T03:46:36.746Z,76.03
2018-07-30T03:49:04.894Z,75.84
2018-07-30T03:51:32.726Z,75.75
2018-07-30T03:54:00.509Z,76.26
2018-07-30T03:56:28.283Z,76.38
2018-07-30T03:58:56.059Z,77.33
2018-07-30T04:01:23.862Z,77.30
2018-07-30T04:03:51.665Z,77.42
2018-07-30T04:06:19.465Z,77.90
2018-07-30T04:08:47.244Z,78.57
2018-07-30T04:11:15.026Z,79.73
2018-07-30T04:13:42.823Z,79.22
2018-07-30T04:16:10.732Z,79.28
2018-07-30T04:18:38.546Z,79.39
2018-07-30T04:21:06.343Z,79.13
2018-07-30T04:23:34.109Z,79.06
2018-07-30T04:26:01.914Z,79.91
2018-07-30T04:28:29.709Z,78.69
2018-07-30T04:30:57.481Z,78.78
2018-07-30T04:33:25.293Z,78.78
2018-07-30T04:35:53.070Z,79.46
2018-07-30T04:38:20.864Z,78.37
2018-07-30T04:40:48.670Z,78.12
2018-07-30T04:43:16.438Z,77.77
2018-07-30T04:45:44.203Z,77.35
2018-07-30T04:48:11.972Z,74.85
2018-07-30T04:50:39.774Z,74.58
2018-07-30T04:53:07.554Z,74.03
2018-07-30T04:55:35.329Z,73.21
2018-07-30T04:58:03.117Z,72.78
2018-07-30T05:00:30.969Z,69.20
2018-07-30T05:03:00.302Z,68.25
2018-07-30T05:05:28.051Z,67.89
2018-07-30T05:07:55.819Z,66.88
2018-07-30T05:10:23.638Z,64.07
2018-07-30T05:12:51.406Z,61.89
2018-07-30T05:15:19.174Z,61.78
2018-07-30T05:17:46.945Z,63.16
2018-07-30T05:20:14.728Z,64.75
2018-07-30T05:22:42.544Z,65.64
2018-07-30T05:25:10.355Z,65.10
2018-07-30T05:27:38.146Z,64.99
2018-07-30T05:30:06.121Z,64.15
2018-07-30T05:32:33.928Z,62.20
2018-07-30T05:35:01.760Z,61.45
2018-07-30T05:37:29.573Z,62.46
2018-07-30T05:39:57.349Z,65.75
2018-07-30T05:42:25.141Z,66.00
2018-07-30T05:44:52.920Z,66.43
2018-07-30T05:47:20.732Z,66.97
2018-07-30T05:49:48.554Z,67.65
2018-07-30T05:52:16.334Z,67.34
2018-07-30T05:54:44.138Z,66.43
2018-07-30T05:57:11.922Z,67.08
2018-07-30T05:59:39.715Z,69.04
2018-07-30T06:02:07.513Z,71.58
2018-07-30T06:04:35.368Z,73.60
2018-07-30T06:07:03.221Z,73.45
2018-07-30T06:09:31.029Z,69.92
2018-07-30T06:11:58.836Z,70.86
2018-07-30T06:14:26.585Z,69.27
2018-07-30T06:16:54.388Z,65.60
2018-07-30T06:19:22.197Z,65.12
2018-07-30T06:21:49.977Z,66.43
2018-07-30T06:24:17.729Z,66.96
2018-07-30T06:26:45.490Z,66.04
2018-07-30T06:29:13.312Z,68.03
2018-07-30T06:31:41.112Z,66.21
2018-07-30T06:34:08.886Z,65.40
2018-07-30T06:36:36.693Z,65.96
2018-07-30T06:39:07.040Z,67.78
2018-07-30T06:41:34.930Z,71.60
2018-07-30T06:44:02.809Z,72.71
2018-07-30T06:46:30.650Z,71.29
2018-07-30T06:48:58.425Z,71.79
2018-07-30T06:51:26.264Z,71.70
2018-07-30T06:53:54.104Z,69.76
2018-07-30T06:56:21.857Z,69.60
2018-07-30T06:58:49.638Z,69.70
2018-07-30T07:01:17.443Z,69.31
2018-07-30T07:03:45.223Z,68.09
2018-07-30T07:06:12.995Z,70.04
2018-07-30T07:08:40.763Z,68.63
2018-07-30T07:11:08.600Z,68.56
2018-07-30T07:13:36.395Z,68.37
2018-07-30T07:16:04.332Z,69.18
2018-07-30T07:18:32.153Z,70.58
2018-07-30T07:20:59.974Z,70.82
2018-07-30T07:23:27.721Z,69.13
2018-07-30T07:25:55.579Z,67.80
2018-07-30T07:28:23.365Z,67.50
2018-07-30T07:30:51.220Z,67.29
2018-07-30T07:33:19.021Z,67.16
2018-07-30T07:35:46.787Z,65.37
2018-07-30T07:38:14.613Z,66.82
2018-07-30T07:40:42.407Z,66.45
2018-07-30T07:43:10.240Z,67.74
2018-07-30T07:45:38.030Z,67.13
2018-07-30T07:48:05.912Z,65.84
2018-07-30T07:50:33.911Z,65.35
2018-07-30T07:53:01.635Z,66.34
2018-07-30T07:55:29.425Z,69.29
2018-07-30T07:57:57.268Z,66.14
2018-07-30T08:00:25.033Z,63.39
2018-07-30T08:02:52.853Z,63.86
2018-07-30T08:05:20.678Z,62.01
2018-07-30T08:07:48.503Z,61.53
2018-07-30T08:10:16.358Z,59.87
2018-07-30T08:12:44.174Z,58.39
2018-07-30T08:15:11.981Z,55.07
2018-07-30T08:17:39.810Z,55.91
2018-07-30T08:20:08.547Z,56.71
2018-07-30T08:22:36.713Z,57.88
2018-07-30T08:25:07.067Z,59.30
2018-07-30T08:27:34.893Z,62.59
2018-07-30T08:30:02.732Z,60.75
2018-07-30T08:32:30.599Z,62.33
2018-07-30T08:34:58.419Z,60.39
2018-07-30T08:37:26.340Z,57.37
2018-07-30T08:39:54.151Z,54.96
2018-07-30T08:42:21.994Z,56.01
2018-07-30T08:44:49.827Z,60.01
2018-07-30T08:47:17.634Z,58.77
2018-07-30T08:49:45.461Z,53.78
2018-07-30T08:52:13.227Z,54.64
2018-07-30T08:54:41.029Z,54.00
2018-07-30T08:57:08.839Z,54.04
2018-07-30T08:59:36.649Z,52.70
2018-07-30T09:02:04.486Z,52.52
2018-07-30T09:04:32.301Z,54.20
2018-07-30T09:07:00.119Z,51.28
2018-07-30T09:09:27.974Z,52.72
2018-07-30T09:11:55.829Z,51.37
2018-07-30T09:14:23.622Z,52.61
2018-07-30T09:16:51.664Z,50.22
2018-07-30T09:19:19.538Z,48.85
2018-07-30T09:21:47.373Z,52.48
2018-07-30T09:24:15.134Z,52.54
2018-07-30T09:26:42.954Z,51.00
2018-07-30T09:29:10.725Z,49.41
2018-07-30T09:31:38.510Z,44.62
2018-07-30T09:34:06.465Z,47.32
2018-07-30T09:36:34.302Z,44.87
2018-07-30T09:39:02.095Z,43.92
2018-07-30T09:41:29.868Z,41.62
2018-07-30T09:43:57.642Z,44.00
2018-07-30T09:46:25.455Z,48.18
2018-07-30T09:48:53.272Z,46.38
2018-07-30T09:51:21.066Z,48.36
2018-07-30T09:53:48.887Z,46.53
2018-07-30T09:56:16.715Z,43.20
2018-07-30T09:58:44.478Z,40.00
2018-07-30T10:01:17.672Z,38.84
2018-07-30T10:03:45.472Z,43.94
2018-07-30T10:06:13.308Z,44.19
2018-07-30T10:08:41.065Z,51.63
2018-07-30T10:11:08.825Z,48.59
2018-07-30T10:13:36.622Z,43.75
2018-07-30T10:16:04.407Z,45.65
2018-07-30T10:18:32.177Z,47.46
2018-07-30T10:21:00.026Z,44.78
2018-07-30T10:23:27.798Z,47.44
2018-07-30T10:25:55.568Z,45.27
2018-07-30T10:28:23.379Z,42.87
2018-07-30T10:30:51.195Z,41.85
2018-07-30T10:33:19.015Z,42.40
2018-07-30T10:35:46.840Z,45.49
2018-07-30T10:38:14.741Z,41.19
2018-07-30T10:40:42.466Z,45.51
2018-07-30T10:43:10.275Z,48.18
2018-07-30T10:45:38.089Z,55.67
2018-07-30T10:48:05.958Z,56.15
2018-07-30T10:50:33.776Z,57.26
2018-07-30T10:53:01.544Z,65.87
2018-07-30T10:55:29.361Z,75.18
2018-07-30T10:57:57.118Z,76.06
2018-07-30T11:00:24.911Z,73.66
2018-07-30T11:02:52.711Z,74.79
2018-07-30T11:05:20.597Z,72.04
2018-07-30T11:07:48.431Z,74.46
2018-07-30T11:10:16.233Z,71.05
2018-07-30T11:12:44.024Z,74.87
2018-07-30T11:15:11.834Z,72.11
2018-07-30T11:17:40.551Z,73.05
2018-07-30T11:20:08.400Z,69.64
2018-07-30T11:22:36.174Z,65.40
2018-07-30T11:25:03.998Z,68.46
2018-07-30T11:27:31.765Z,66.85
2018-07-30T11:29:59.569Z,63.32
2018-07-30T11:32:27.369Z,64.80
2018-07-30T11:34:55.137Z,64.58
2018-07-30T11:37:22.897Z,63.28
2018-07-30T11:39:50.683Z,62.43
2018-07-30T11:42:18.547Z,58.92
2018-07-30T11:44:46.343Z,58.21
2018-07-30T11:47:14.125Z,51.72
2018-07-30T11:49:41.948Z,57.07
2018-07-30T11:52:09.733Z,56.01
2018-07-30T11:54:37.486Z,55.83
2018-07-30T11:57:05.334Z,53.68
2018-07-30T11:59:33.158Z,53.21
2018-07-30T12:02:00.942Z,51.57
2018-07-30T12:04:28.834Z,50.67
2018-07-30T12:06:56.616Z,52.78
2018-07-30T12:09:24.431Z,52.20
2018-07-30T12:11:52.286Z,49.78
2018-07-30T12:14:20.167Z,48.86
2018-07-30T12:16:47.982Z,50.04
2018-07-30T12:19:15.771Z,47.92
2018-07-30T12:21:43.613Z,47.83
2018-07-30T12:24:11.394Z,48.67
2018-07-30T12:26:39.218Z,47.90
2018-07-30T12:29:07.031Z,50.19
2018-07-30T12:31:34.814Z,48.66
2018-07-30T12:34:02.914Z,47.10
2018-07-30T12:36:30.779Z,46.56
2018-07-30T12:38:58.653Z,46.08
2018-07-30T12:41:26.458Z,45.20
2018-07-30T12:43:54.322Z,43.88
2018-07-30T12:46:22.113Z,44.92
2018-07-30T12:48:49.895Z,44.90
2018-07-30T12:51:17.736Z,44.75
2018-07-30T12:53:45.582Z,43.92
2018-07-30T12:56:13.374Z,41.99
2018-07-30T12:58:42.603Z,43.67
2018-07-30T13:01:10.535Z,45.39
2018-07-30T13:03:38.354Z,46.14
2018-07-30T13:06:06.303Z,43.77
2018-07-30T13:08:34.095Z,43.88
2018-07-30T13:11:01.906Z,44.92
2018-07-30T13:13:29.729Z,43.66
2018-07-30T13:15:57.627Z,44.89
2018-07-30T13:18:25.434Z,43.45
2018-07-30T13:20:53.239Z,44.36
2018-07-30T13:23:21.049Z,45.00
2018-07-30T13:25:48.880Z,43.44
2018-07-30T13:28:16.703Z,41.80
2018-07-30T13:30:44.501Z,41.91
2018-07-30T13:33:12.285Z,41.29
2018-07-30T13:35:40.071Z,45.61
2018-07-30T13:38:08.058Z,47.28
2018-07-30T13:40:35.976Z,46.47
2018-07-30T13:43:03.791Z,45.42
2018-07-30T13:45:31.593Z,45.72
2018-07-30T13:47:59.370Z,47.13
2018-07-30T13:50:27.230Z,49.87
2018-07-30T13:52:55.001Z,49.91
2018-07-30T13:55:22.775Z,49.56
2018-07-30T13:57:50.559Z,49.08
2018-07-30T14:00:18.371Z,48.37
2018-07-30T14:02:46.255Z,48.55
2018-07-30T14:05:14.092Z,48.43
2018-07-30T14:07:41.911Z,49.52
2018-07-30T14:10:10.187Z,51.42
2018-07-30T14:12:38.237Z,49.07
2018-07-30T14:15:06.669Z,49.52
2018-07-30T14:17:34.523Z,51.72
2018-07-30T14:20:02.293Z,53.48
2018-07-30T14:22:30.150Z,52.46
2018-07-30T14:24:57.968Z,53.26
2018-07-30T14:27:25.764Z,53.07
2018-07-30T14:29:53.605Z,52.53
2018-07-30T14:32:21.396Z,51.74
2018-07-30T14:34:49.274Z,56.54
2018-07-30T14:37:17.109Z,60.30
2018-07-30T14:39:44.926Z,61.53
2018-07-30T14:42:12.767Z,61.20
2018-07-30T14:44:40.672Z,61.50
2018-07-30T14:47:08.605Z,60.86
2018-07-30T14:49:36.466Z,61.90
2018-07-30T14:52:04.387Z,60.50
2018-07-30T14:54:32.334Z,61.15
2018-07-30T14:57:00.174Z,61.14
2018-07-30T14:59:28.191Z,60.38
2018-07-30T15:01:56.005Z,58.95
2018-07-30T15:04:23.875Z,60.93
2018-07-30T15:06:51.814Z,59.20
2018-07-30T15:09:19.738Z,58.70
2018-07-30T15:11:47.661Z,60.77
2018-07-30T15:14:15.519Z,62.13
2018-07-30T15:16:43.378Z,62.54
2018-07-30T15:19:11.329Z,62.26
2018-07-30T15:21:39.173Z,61.08
2018-07-30T15:24:07.060Z,61.14
2018-07-30T15:26:34.901Z,61.31
2018-07-30T15:29:02.786Z,60.99
2018-07-30T15:31:30.881Z,61.25
2018-07-30T15:33:58.897Z,61.17
2018-07-30T15:36:26.745Z,61.22
2018-07-30T15:38:54.616Z,60.84
2018-07-30T15:41:22.466Z,61.55
2018-07-30T15:43:50.330Z,64.69
2018-07-30T15:46:18.145Z,64.22
2018-07-30T15:48:46.106Z,62.88
2018-07-30T15:51:14.035Z,63.39
2018-07-30T15:53:41.942Z,65.24
2018-07-30T15:56:09.848Z,69.69
2018-07-30T15:58:38.102Z,70.80
2018-07-30T16:01:05.981Z,71.30
2018-07-30T16:03:33.829Z,70.79
2018-07-30T16:06:02.048Z,68.73
2018-07-30T16:08:30.336Z,66.73
2018-07-30T16:10:58.211Z,66.11
2018-07-30T16:13:26.070Z,64.87
2018-07-30T16:15:53.960Z,64.41
2018-07-30T16:18:21.838Z,64.07
2018-07-30T16:20:50.598Z,64.86
2018-07-30T16:23:18.615Z,65.73
2018-07-30T16:25:46.939Z,66.55
2018-07-30T16:28:14.798Z,66.59
2018-07-30T16:30:42.735Z,66.63
2018-07-30T16:33:10.626Z,67.45
2018-07-30T16:35:38.498Z,67.87
2018-07-30T16:38:06.337Z,66.47
2018-07-30T16:40:34.201Z,65.32
2018-07-30T16:43:02.169Z,65.47
2018-07-30T16:45:30.426Z,66.49
2018-07-30T16:47:58.297Z,65.15
2018-07-30T16:50:26.201Z,65.60
2018-07-30T16:52:54.110Z,65.48
2018-07-30T16:55:21.993Z,63.47
2018-07-30T16:57:49.858Z,64.07
2018-07-30T17:00:17.829Z,63.33
2018-07-30T17:02:45.706Z,64.92
2018-07-30T17:05:16.530Z,64.62
2018-07-30T17:07:44.414Z,64.43
2018-07-30T17:10:12.327Z,64.78
2018-07-30T17:12:40.252Z,66.33
2018-07-30T17:15:08.101Z,66.55
2018-07-30T17:17:35.961Z,66.66
2018-07-30T17:20:05.667Z,66.57
2018-07-30T17:22:33.477Z,65.77
2018-07-30T17:25:01.375Z,66.33
2018-07-30T17:27:29.259Z,67.07
2018-07-30T17:29:57.161Z,66.97
2018-07-30T17:32:25.110Z,67.29
2018-07-30T17:34:52.968Z,67.36
2018-07-30T17:37:20.862Z,65.96
2018-07-30T17:39:48.717Z,67.10
2018-07-30T17:42:16.555Z,66.17
2018-07-30T17:44:44.420Z,66.15
2018-07-30T17:47:12.290Z,66.89
2018-07-30T17:49:40.163Z,66.24
2018-07-30T17:52:08.068Z,65.35
2018-07-30T17:54:35.966Z,65.98
2018-07-30T17:57:03.934Z,66.09
2018-07-30T17:59:31.822Z,65.61
2018-07-30T18:01:59.763Z,66.12
2018-07-30T18:04:27.681Z,65.61
2018-07-30T18:06:55.566Z,66.61
2018-07-30T18:09:23.453Z,66.77
2018-07-30T18:11:51.324Z,66.55
2018-07-30T18:14:19.236Z,67.29
2018-07-30T18:16:47.157Z,67.05
2018-07-30T18:19:15.006Z,69.02
2018-07-30T18:21:43.234Z,70.03
2018-07-30T18:24:11.113Z,70.12
2018-07-30T18:26:39.013Z,68.97
2018-07-30T18:29:07.249Z,68.50
2018-07-30T18:31:35.126Z,68.98
2018-07-30T18:34:03.054Z,68.66
2018-07-30T18:36:31.016Z,69.26
2018-07-30T18:38:58.916Z,69.01
2018-07-30T18:41:26.888Z,69.05
2018-07-30T18:43:54.737Z,68.76
2018-07-30T18:46:22.722Z,68.82
2018-07-30T18:48:50.565Z,70.17
2018-07-30T18:51:18.897Z,70.25
2018-07-30T18:53:46.750Z,71.08
2018-07-30T18:56:14.725Z,71.98
2018-07-30T18:58:42.665Z,71.37
2018-07-30T19:01:10.599Z,73.55
2018-07-30T19:03:38.541Z,74.59
2018-07-30T19:06:07.486Z,74.29
2018-07-30T19:08:35.405Z,75.61
2018-07-30T19:11:03.349Z,77.00
2018-07-30T19:13:31.252Z,76.97
2018-07-30T19:15:59.180Z,78.42
2018-07-30T19:18:27.094Z,78.14
2018-07-30T19:20:55.005Z,79.03
2018-07-30T19:23:22.885Z,77.99
2018-07-30T19:25:50.762Z,76.70
2018-07-30T19:28:18.669Z,77.66
2018-07-30T19:30:46.536Z,77.03
2018-07-30T19:33:14.937Z,77.11
2018-07-30T19:35:42.877Z,77.57
2018-07-30T19:38:10.785Z,78.04
2018-07-30T19:40:38.712Z,78.89
2018-07-30T19:43:07.245Z,79.67
2018-07-30T19:45:35.142Z,80.40
2018-07-30T19:48:03.109Z,79.77
2018-07-30T19:50:31.073Z,79.15
2018-07-30T19:52:59.129Z,80.61
2018-07-30T19:55:27.013Z,78.73
2018-07-30T19:57:55.109Z,77.46
2018-07-30T20:00:22.887Z,78.59
2018-07-30T20:02:50.768Z,77.69
2018-07-30T20:05:18.648Z,77.54
2018-07-30T20:07:46.549Z,76.17
2018-07-30T20:10:14.458Z,77.37
2018-07-30T20:12:42.332Z,77.43
2018-07-30T20:15:10.290Z,77.98
2018-07-30T20:17:38.248Z,76.91
2018-07-30T20:20:10.412Z,76.93
2018-07-30T20:22:38.213Z,77.01
2018-07-30T20:25:06.416Z,77.77
2018-07-30T20:27:34.309Z,76.55
2018-07-30T20:30:02.278Z,76.50
2018-07-30T20:32:30.133Z,75.80
2018-07-30T20:34:58.081Z,77.20
2018-07-30T20:37:25.962Z,76.00
2018-07-30T20:39:54.165Z,75.34
2018-07-30T20:42:22.133Z,76.02
2018-07-30T20:44:50.005Z,76.21
2018-07-30T20:47:17.959Z,75.61
2018-07-30T20:49:45.821Z,75.29
2018-07-30T20:52:13.669Z,75.07
2018-07-30T20:54:41.529Z,75.27
2018-07-30T20:57:09.357Z,74.47
2018-07-30T20:59:37.251Z,75.85
2018-07-30T21:02:05.197Z,74.90
2018-07-30T21:04:33.133Z,76.47
2018-07-30T21:07:00.905Z,75.10
2018-07-30T21:09:28.825Z,75.22
2018-07-30T21:11:56.684Z,74.08
2018-07-30T21:14:24.565Z,74.53
2018-07-30T21:16:52.413Z,75.14
2018-07-30T21:19:20.280Z,75.91
2018-07-30T21:21:48.121Z,75.04
2018-07-30T21:24:16.011Z,75.53
2018-07-30T21:26:43.842Z,75.36
2018-07-30T21:29:11.665Z,74.79
2018-07-30T21:31:39.486Z,75.20
2018-07-30T21:34:07.335Z,75.60
2018-07-30T21:36:35.382Z,76.18
2018-07-30T21:39:03.791Z,76.35
2018-07-30T21:41:31.665Z,76.04
2018-07-30T21:43:59.490Z,75.69
2018-07-30T21:46:27.321Z,76.12
2018-07-30T21:48:55.178Z,75.40
2018-07-30T21:51:23.026Z,75.09
2018-07-30T21:53:50.894Z,75.05
2018-07-30T21:56:18.765Z,74.70
2018-07-30T21:58:46.680Z,74.27
2018-07-30T22:01:14.708Z,74.59
2018-07-30T22:03:42.665Z,75.30
2018-07-30T22:06:10.604Z,75.20
2018-07-30T22:08:38.570Z,75.69
2018-07-30T22:11:06.567Z,74.83
2018-07-30T22:13:34.492Z,74.95
2018-07-30T22:16:02.456Z,76.61
2018-07-30T22:18:30.383Z,77.15
2018-07-30T22:20:58.355Z,78.28
2018-07-30T22:23:26.277Z,78.89
2018-07-30T22:25:54.198Z,78.80
2018-07-30T22:28:22.163Z,78.95
2018-07-30T22:30:50.183Z,79.25
2018-07-30T22:33:18.157Z,79.60
2018-07-30T22:35:46.131Z,79.16
2018-07-30T22:38:14.053Z,78.85
2018-07-30T22:40:41.972Z,78.24
2018-07-30T22:43:10.363Z,78.34
2018-07-30T22:45:38.419Z,78.21
2018-07-30T22:48:06.325Z,77.98
2018-07-30T22:50:34.463Z,78.15
2018-07-30T22:53:02.403Z,77.68
2018-07-30T22:55:30.335Z,76.49
2018-07-30T22:57:58.313Z,75.85
2018-07-30T23:00:26.288Z,75.24
2018-07-30T23:02:54.310Z,75.92
2018-07-30T23:05:22.257Z,75.56
2018-07-30T23:07:50.219Z,75.23
2018-07-30T23:10:18.167Z,76.07
2018-07-30T23:12:46.116Z,76.76
2018-07-30T23:15:14.036Z,76.87
2018-07-30T23:17:41.905Z,77.00
2018-07-30T23:20:09.761Z,76.82
2018-07-30T23:22:37.606Z,76.82
2018-07-30T23:25:05.441Z,77.52
2018-07-30T23:27:33.338Z,77.94
2018-07-30T23:30:01.202Z,77.49
2018-07-30T23:32:29.108Z,77.36
2018-07-30T23:34:57.021Z,76.48
2018-07-30T23:37:25.073Z,76.90
2018-07-30T23:39:52.922Z,77.71
2018-07-30T23:42:20.840Z,78.59
2018-07-30T23:44:48.829Z,78.92
2018-07-30T23:47:16.795Z,78.19
2018-07-30T23:49:44.701Z,78.81
2018-07-30T23:52:12.679Z,78.86
2018-07-30T23:54:40.619Z,78.55
2018-07-30T23:57:08.539Z,78.54
2018-07-30T23:59:36.507Z,78.41
